sensor_id;sensor_type;location;lat;lon;timestamp;P1;durP1;ratioP1;P2;durP2;ratioP2
11539;SDS011;5826;54.756;9.192;2023-02-28T00:00:23;3.80;;;2.60;;
11539;SDS011;5826;54.756;9.192;2023-02-28T00:02:48;3.80;;;2.70;;
11539;SDS011;5826;54.756;9.192;2023-02-28T00:05:15;3.67;;;2.60;;
11539;SDS011;5826;54.756;9.192;2023-02-28T00:07:43;3.60;;;2.60;;
11539;SDS011;5826;54.756;9.192;2023-02-28T00:10:09;3.47;;;2.77;;
11539;SDS011;5826;54.756;9.192;2023-02-28T00:12:36;3.00;;;2.60;;
11539;SDS011;5826;54.756;9.192;2023-02-28T00:15:04;3.27;;;2.70;;
11539;SDS011;5826;54.756;9.192;2023-02-28T00:17:32;3.83;;;2.73;;
11539;SDS011;5826;54.756;9.192;2023-02-28T00:19:57;3.83;;;2.47;;
11539;SDS011;5826;54.756;9.192;2023-02-28T00:22:35;4.03;;;2.70;;
11539;SDS011;5826;54.756;9.192;2023-02-28T00:25:01;2.97;;;2.77;;
11539;SDS011;5826;54.756;9.192;2023-02-28T00:27:27;2.90;;;2.60;;
11539;SDS011;5826;54.756;9.192;2023-02-28T00:29:52;2.90;;;2.27;;
11539;SDS011;5826;54.756;9.192;2023-02-28T00:32:19;3.50;;;2.80;;
11539;SDS011;5826;54.756;9.192;2023-02-28T00:34:44;2.83;;;2.37;;
11539;SDS011;5826;54.756;9.192;2023-02-28T00:37:10;2.93;;;2.60;;
11539;SDS011;5826;54.756;9.192;2023-02-28T00:39:39;4.80;;;2.53;;
11539;SDS011;5826;54.756;9.192;2023-02-28T00:42:05;3.70;;;2.60;;
11539;SDS011;5826;54.756;9.192;2023-02-28T00:44:31;3.33;;;2.60;;
11539;SDS011;5826;54.756;9.192;2023-02-28T00:46:57;3.73;;;2.70;;
11539;SDS011;5826;54.756;9.192;2023-02-28T00:49:24;3.70;;;2.67;;
11539;SDS011;5826;54.756;9.192;2023-02-28T00:51:50;4.27;;;2.60;;
11539;SDS011;5826;54.756;9.192;2023-02-28T00:54:16;2.80;;;2.40;;
11539;SDS011;5826;54.756;9.192;2023-02-28T00:56:42;3.00;;;2.70;;
11539;SDS011;5826;54.756;9.192;2023-02-28T00:59:08;3.60;;;2.80;;
11539;SDS011;5826;54.756;9.192;2023-02-28T01:01:34;3.60;;;2.50;;
11539;SDS011;5826;54.756;9.192;2023-02-28T01:03:59;4.50;;;2.83;;
11539;SDS011;5826;54.756;9.192;2023-02-28T01:06:25;3.07;;;2.40;;
11539;SDS011;5826;54.756;9.192;2023-02-28T01:08:50;2.87;;;2.37;;
11539;SDS011;5826;54.756;9.192;2023-02-28T01:11:16;3.63;;;2.70;;
11539;SDS011;5826;54.756;9.192;2023-02-28T01:13:43;2.67;;;2.33;;
11539;SDS011;5826;54.756;9.192;2023-02-28T01:16:10;2.90;;;2.50;;
11539;SDS011;5826;54.756;9.192;2023-02-28T01:18:36;3.57;;;2.87;;
11539;SDS011;5826;54.756;9.192;2023-02-28T01:21:06;3.03;;;2.53;;
11539;SDS011;5826;54.756;9.192;2023-02-28T01:23:33;4.47;;;2.67;;
11539;SDS011;5826;54.756;9.192;2023-02-28T01:26:08;3.20;;;2.47;;
11539;SDS011;5826;54.756;9.192;2023-02-28T01:28:40;3.40;;;2.83;;
11539;SDS011;5826;54.756;9.192;2023-02-28T01:31:05;2.87;;;2.60;;
11539;SDS011;5826;54.756;9.192;2023-02-28T01:33:31;3.57;;;2.30;;
11539;SDS011;5826;54.756;9.192;2023-02-28T01:35:58;4.27;;;2.60;;
11539;SDS011;5826;54.756;9.192;2023-02-28T01:38:25;2.93;;;2.53;;
11539;SDS011;5826;54.756;9.192;2023-02-28T01:40:50;3.67;;;2.63;;
11539;SDS011;5826;54.756;9.192;2023-02-28T01:43:19;3.67;;;2.97;;
11539;SDS011;5826;54.756;9.192;2023-02-28T01:45:56;3.23;;;2.67;;
11539;SDS011;5826;54.756;9.192;2023-02-28T01:48:25;4.20;;;3.17;;
11539;SDS011;5826;54.756;9.192;2023-02-28T01:50:58;4.47;;;3.23;;
11539;SDS011;5826;54.756;9.192;2023-02-28T01:53:30;3.67;;;3.10;;
11539;SDS011;5826;54.756;9.192;2023-02-28T01:55:59;3.30;;;3.00;;
11539;SDS011;5826;54.756;9.192;2023-02-28T01:58:25;3.97;;;3.20;;
11539;SDS011;5826;54.756;9.192;2023-02-28T02:00:50;3.67;;;2.90;;
11539;SDS011;5826;54.756;9.192;2023-02-28T02:03:17;3.87;;;2.73;;
11539;SDS011;5826;54.756;9.192;2023-02-28T02:05:44;3.53;;;2.80;;
11539;SDS011;5826;54.756;9.192;2023-02-28T02:08:13;3.53;;;2.90;;
11539;SDS011;5826;54.756;9.192;2023-02-28T02:13:22;3.80;;;3.10;;
11539;SDS011;5826;54.756;9.192;2023-02-28T02:16:02;4.53;;;3.57;;
11539;SDS011;5826;54.756;9.192;2023-02-28T02:21:34;4.37;;;3.00;;
11539;SDS011;5826;54.756;9.192;2023-02-28T02:24:08;3.30;;;3.00;;
11539;SDS011;5826;54.756;9.192;2023-02-28T02:32:44;3.83;;;3.03;;
11539;SDS011;5826;54.756;9.192;2023-02-28T02:41:01;3.80;;;3.23;;
11539;SDS011;5826;54.756;9.192;2023-02-28T02:46:52;3.53;;;2.90;;
11539;SDS011;5826;54.756;9.192;2023-02-28T02:49:24;3.30;;;3.00;;
11539;SDS011;5826;54.756;9.192;2023-02-28T02:51:55;3.73;;;3.10;;
11539;SDS011;5826;54.756;9.192;2023-02-28T02:54:36;3.43;;;2.80;;
11539;SDS011;5826;54.756;9.192;2023-02-28T02:57:07;3.00;;;2.63;;
11539;SDS011;5826;54.756;9.192;2023-02-28T02:59:37;4.07;;;2.87;;
11539;SDS011;5826;54.756;9.192;2023-02-28T03:02:06;3.30;;;2.90;;
11539;SDS011;5826;54.756;9.192;2023-02-28T03:04:34;3.73;;;3.03;;
11539;SDS011;5826;54.756;9.192;2023-02-28T03:07:08;3.90;;;3.10;;
11539;SDS011;5826;54.756;9.192;2023-02-28T03:09:34;3.70;;;3.23;;
11539;SDS011;5826;54.756;9.192;2023-02-28T03:12:00;4.80;;;2.83;;
11539;SDS011;5826;54.756;9.192;2023-02-28T03:17:18;4.47;;;3.00;;
11539;SDS011;5826;54.756;9.192;2023-02-28T03:20:16;3.57;;;2.87;;
11539;SDS011;5826;54.756;9.192;2023-02-28T03:22:45;4.17;;;3.40;;
11539;SDS011;5826;54.756;9.192;2023-02-28T03:27:53;4.20;;;3.20;;
11539;SDS011;5826;54.756;9.192;2023-02-28T03:33:12;4.67;;;3.20;;
11539;SDS011;5826;54.756;9.192;2023-02-28T03:35:48;4.50;;;3.17;;
11539;SDS011;5826;54.756;9.192;2023-02-28T03:38:20;3.60;;;3.20;;
11539;SDS011;5826;54.756;9.192;2023-02-28T03:41:00;4.67;;;3.17;;
11539;SDS011;5826;54.756;9.192;2023-02-28T03:43:33;3.90;;;3.00;;
11539;SDS011;5826;54.756;9.192;2023-02-28T03:46:04;3.87;;;2.80;;
11539;SDS011;5826;54.756;9.192;2023-02-28T03:48:43;4.33;;;3.33;;
11539;SDS011;5826;54.756;9.192;2023-02-28T03:51:14;3.50;;;3.13;;
11539;SDS011;5826;54.756;9.192;2023-02-28T03:53:47;3.27;;;2.90;;
11539;SDS011;5826;54.756;9.192;2023-02-28T03:56:19;4.00;;;3.13;;
11539;SDS011;5826;54.756;9.192;2023-02-28T03:59:02;4.33;;;3.53;;
11539;SDS011;5826;54.756;9.192;2023-02-28T04:01:53;4.30;;;3.50;;
11539;SDS011;5826;54.756;9.192;2023-02-28T04:04:20;4.90;;;3.60;;
11539;SDS011;5826;54.756;9.192;2023-02-28T04:06:47;4.70;;;3.40;;
11539;SDS011;5826;54.756;9.192;2023-02-28T04:09:15;4.30;;;3.43;;
11539;SDS011;5826;54.756;9.192;2023-02-28T04:11:42;4.57;;;3.60;;
11539;SDS011;5826;54.756;9.192;2023-02-28T04:14:14;5.23;;;3.50;;
11539;SDS011;5826;54.756;9.192;2023-02-28T04:16:41;5.33;;;3.20;;
11539;SDS011;5826;54.756;9.192;2023-02-28T04:19:07;5.20;;;3.53;;
11539;SDS011;5826;54.756;9.192;2023-02-28T04:21:38;7.33;;;4.27;;
11539;SDS011;5826;54.756;9.192;2023-02-28T04:24:06;5.37;;;3.40;;
11539;SDS011;5826;54.756;9.192;2023-02-28T04:26:34;4.27;;;3.30;;
11539;SDS011;5826;54.756;9.192;2023-02-28T04:29:01;4.33;;;3.37;;
11539;SDS011;5826;54.756;9.192;2023-02-28T04:31:30;6.83;;;3.53;;
11539;SDS011;5826;54.756;9.192;2023-02-28T04:33:56;6.17;;;3.33;;
11539;SDS011;5826;54.756;9.192;2023-02-28T04:36:22;5.27;;;3.43;;
11539;SDS011;5826;54.756;9.192;2023-02-28T04:38:48;4.63;;;3.60;;
11539;SDS011;5826;54.756;9.192;2023-02-28T04:41:14;4.90;;;3.17;;
11539;SDS011;5826;54.756;9.192;2023-02-28T04:43:40;4.93;;;3.20;;
11539;SDS011;5826;54.756;9.192;2023-02-28T04:46:05;5.20;;;3.67;;
11539;SDS011;5826;54.756;9.192;2023-02-28T04:48:32;5.17;;;3.80;;
11539;SDS011;5826;54.756;9.192;2023-02-28T04:51:01;5.17;;;3.63;;
11539;SDS011;5826;54.756;9.192;2023-02-28T04:53:28;4.07;;;3.47;;
11539;SDS011;5826;54.756;9.192;2023-02-28T04:55:54;4.67;;;3.57;;
11539;SDS011;5826;54.756;9.192;2023-02-28T04:58:20;4.77;;;3.80;;
11539;SDS011;5826;54.756;9.192;2023-02-28T05:00:48;5.70;;;3.33;;
11539;SDS011;5826;54.756;9.192;2023-02-28T05:03:13;4.90;;;3.60;;
11539;SDS011;5826;54.756;9.192;2023-02-28T05:05:39;4.80;;;3.73;;
11539;SDS011;5826;54.756;9.192;2023-02-28T05:08:04;4.97;;;3.50;;
11539;SDS011;5826;54.756;9.192;2023-02-28T05:10:30;5.70;;;3.80;;
11539;SDS011;5826;54.756;9.192;2023-02-28T05:12:56;6.13;;;3.77;;
11539;SDS011;5826;54.756;9.192;2023-02-28T05:15:22;8.30;;;4.83;;
11539;SDS011;5826;54.756;9.192;2023-02-28T05:17:48;12.57;;;5.67;;
11539;SDS011;5826;54.756;9.192;2023-02-28T05:20:13;11.80;;;6.23;;
11539;SDS011;5826;54.756;9.192;2023-02-28T05:22:39;10.27;;;5.57;;
11539;SDS011;5826;54.756;9.192;2023-02-28T05:25:06;12.40;;;5.87;;
11539;SDS011;5826;54.756;9.192;2023-02-28T05:27:44;10.70;;;6.50;;
11539;SDS011;5826;54.756;9.192;2023-02-28T05:30:09;8.43;;;5.33;;
11539;SDS011;5826;54.756;9.192;2023-02-28T05:32:36;9.53;;;6.17;;
11539;SDS011;5826;54.756;9.192;2023-02-28T05:35:02;9.60;;;5.60;;
11539;SDS011;5826;54.756;9.192;2023-02-28T05:37:29;8.60;;;5.83;;
11539;SDS011;5826;54.756;9.192;2023-02-28T05:39:54;8.27;;;5.60;;
11539;SDS011;5826;54.756;9.192;2023-02-28T05:42:20;7.53;;;5.23;;
11539;SDS011;5826;54.756;9.192;2023-02-28T05:44:45;8.33;;;5.83;;
11539;SDS011;5826;54.756;9.192;2023-02-28T05:47:11;11.00;;;5.63;;
11539;SDS011;5826;54.756;9.192;2023-02-28T05:49:40;9.33;;;6.03;;
11539;SDS011;5826;54.756;9.192;2023-02-28T05:52:06;7.70;;;5.50;;
11539;SDS011;5826;54.756;9.192;2023-02-28T05:54:31;9.07;;;5.83;;
11539;SDS011;5826;54.756;9.192;2023-02-28T05:56:57;8.37;;;5.57;;
11539;SDS011;5826;54.756;9.192;2023-02-28T05:59:22;8.40;;;6.53;;
11539;SDS011;5826;54.756;9.192;2023-02-28T06:01:48;13.70;;;7.10;;
11539;SDS011;5826;54.756;9.192;2023-02-28T06:04:14;12.73;;;7.97;;
11539;SDS011;5826;54.756;9.192;2023-02-28T06:06:45;11.07;;;6.97;;
11539;SDS011;5826;54.756;9.192;2023-02-28T06:09:11;9.07;;;6.17;;
11539;SDS011;5826;54.756;9.192;2023-02-28T06:11:37;9.17;;;6.10;;
11539;SDS011;5826;54.756;9.192;2023-02-28T06:14:03;8.20;;;5.97;;
11539;SDS011;5826;54.756;9.192;2023-02-28T06:16:30;6.60;;;5.10;;
11539;SDS011;5826;54.756;9.192;2023-02-28T06:18:57;7.47;;;5.07;;
11539;SDS011;5826;54.756;9.192;2023-02-28T06:21:23;6.30;;;4.50;;
11539;SDS011;5826;54.756;9.192;2023-02-28T06:23:49;5.60;;;4.27;;
11539;SDS011;5826;54.756;9.192;2023-02-28T06:26:15;8.23;;;4.60;;
11539;SDS011;5826;54.756;9.192;2023-02-28T06:28:40;7.80;;;4.40;;
11539;SDS011;5826;54.756;9.192;2023-02-28T06:31:07;6.07;;;4.03;;
11539;SDS011;5826;54.756;9.192;2023-02-28T06:33:37;7.70;;;4.90;;
11539;SDS011;5826;54.756;9.192;2023-02-28T06:36:04;5.53;;;4.30;;
11539;SDS011;5826;54.756;9.192;2023-02-28T06:38:30;5.53;;;3.90;;
11539;SDS011;5826;54.756;9.192;2023-02-28T06:40:57;6.97;;;4.47;;
11539;SDS011;5826;54.756;9.192;2023-02-28T06:43:24;7.03;;;4.47;;
11539;SDS011;5826;54.756;9.192;2023-02-28T06:45:53;11.00;;;5.13;;
11539;SDS011;5826;54.756;9.192;2023-02-28T06:48:20;6.73;;;4.90;;
11539;SDS011;5826;54.756;9.192;2023-02-28T06:50:45;6.83;;;5.30;;
11539;SDS011;5826;54.756;9.192;2023-02-28T06:53:11;6.90;;;5.57;;
11539;SDS011;5826;54.756;9.192;2023-02-28T06:55:37;6.80;;;4.77;;
11539;SDS011;5826;54.756;9.192;2023-02-28T06:58:03;8.07;;;5.07;;
11539;SDS011;5826;54.756;9.192;2023-02-28T07:00:39;10.20;;;5.83;;
11539;SDS011;5826;54.756;9.192;2023-02-28T07:03:08;12.27;;;6.87;;
11539;SDS011;5826;54.756;9.192;2023-02-28T07:05:35;16.07;;;7.43;;
11539;SDS011;5826;54.756;9.192;2023-02-28T07:08:01;16.03;;;7.67;;
11539;SDS011;5826;54.756;9.192;2023-02-28T07:10:28;15.97;;;8.07;;
11539;SDS011;5826;54.756;9.192;2023-02-28T07:12:54;34.57;;;13.23;;
11539;SDS011;5826;54.756;9.192;2023-02-28T07:15:20;36.50;;;15.07;;
11539;SDS011;5826;54.756;9.192;2023-02-28T07:17:45;41.33;;;16.67;;
11539;SDS011;5826;54.756;9.192;2023-02-28T07:20:11;42.30;;;17.37;;
11539;SDS011;5826;54.756;9.192;2023-02-28T07:22:37;47.00;;;18.37;;
11539;SDS011;5826;54.756;9.192;2023-02-28T07:25:03;50.50;;;19.33;;
11539;SDS011;5826;54.756;9.192;2023-02-28T07:27:30;38.37;;;16.47;;
11539;SDS011;5826;54.756;9.192;2023-02-28T07:29:55;31.07;;;14.80;;
11539;SDS011;5826;54.756;9.192;2023-02-28T07:32:21;28.30;;;14.17;;
11539;SDS011;5826;54.756;9.192;2023-02-28T07:34:47;28.83;;;14.10;;
11539;SDS011;5826;54.756;9.192;2023-02-28T07:37:13;21.40;;;13.00;;
11539;SDS011;5826;54.756;9.192;2023-02-28T07:39:39;19.47;;;12.20;;
11539;SDS011;5826;54.756;9.192;2023-02-28T07:42:07;16.57;;;9.80;;
11539;SDS011;5826;54.756;9.192;2023-02-28T07:44:35;22.77;;;10.43;;
11539;SDS011;5826;54.756;9.192;2023-02-28T07:47:05;33.17;;;10.57;;
11539;SDS011;5826;54.756;9.192;2023-02-28T07:49:34;107.77;;;13.10;;
11539;SDS011;5826;54.756;9.192;2023-02-28T07:52:03;24.03;;;10.13;;
11539;SDS011;5826;54.756;9.192;2023-02-28T07:54:30;16.83;;;9.67;;
11539;SDS011;5826;54.756;9.192;2023-02-28T07:56:55;26.47;;;9.63;;
11539;SDS011;5826;54.756;9.192;2023-02-28T07:59:21;11.57;;;7.37;;
11539;SDS011;5826;54.756;9.192;2023-02-28T08:01:46;13.40;;;7.73;;
11539;SDS011;5826;54.756;9.192;2023-02-28T08:04:15;32.57;;;8.00;;
11539;SDS011;5826;54.756;9.192;2023-02-28T08:06:41;15.30;;;6.80;;
11539;SDS011;5826;54.756;9.192;2023-02-28T08:09:06;10.20;;;6.50;;
11539;SDS011;5826;54.756;9.192;2023-02-28T08:11:32;6.67;;;5.40;;
11539;SDS011;5826;54.756;9.192;2023-02-28T08:13:58;6.67;;;5.47;;
11539;SDS011;5826;54.756;9.192;2023-02-28T08:16:23;10.30;;;5.67;;
11539;SDS011;5826;54.756;9.192;2023-02-28T08:18:49;8.40;;;5.60;;
11539;SDS011;5826;54.756;9.192;2023-02-28T08:21:16;8.60;;;6.33;;
11539;SDS011;5826;54.756;9.192;2023-02-28T08:23:41;6.00;;;5.17;;
11539;SDS011;5826;54.756;9.192;2023-02-28T08:26:07;7.90;;;5.57;;
11539;SDS011;5826;54.756;9.192;2023-02-28T08:28:32;7.57;;;5.73;;
11539;SDS011;5826;54.756;9.192;2023-02-28T08:30:58;6.50;;;5.20;;
11539;SDS011;5826;54.756;9.192;2023-02-28T08:33:24;7.30;;;6.17;;
11539;SDS011;5826;54.756;9.192;2023-02-28T08:35:54;6.33;;;5.40;;
11539;SDS011;5826;54.756;9.192;2023-02-28T08:38:21;6.17;;;5.40;;
11539;SDS011;5826;54.756;9.192;2023-02-28T08:40:46;7.33;;;5.73;;
11539;SDS011;5826;54.756;9.192;2023-02-28T08:43:12;5.27;;;4.77;;
11539;SDS011;5826;54.756;9.192;2023-02-28T08:45:37;6.60;;;5.23;;
11539;SDS011;5826;54.756;9.192;2023-02-28T08:48:03;8.40;;;6.00;;
11539;SDS011;5826;54.756;9.192;2023-02-28T08:50:29;7.27;;;6.13;;
11539;SDS011;5826;54.756;9.192;2023-02-28T08:52:54;8.23;;;6.53;;
11539;SDS011;5826;54.756;9.192;2023-02-28T08:55:20;8.40;;;7.00;;
11539;SDS011;5826;54.756;9.192;2023-02-28T08:57:45;7.17;;;6.03;;
11539;SDS011;5826;54.756;9.192;2023-02-28T09:00:12;10.80;;;8.27;;
11539;SDS011;5826;54.756;9.192;2023-02-28T09:02:38;8.00;;;6.83;;
11539;SDS011;5826;54.756;9.192;2023-02-28T09:05:04;10.83;;;7.13;;
11539;SDS011;5826;54.756;9.192;2023-02-28T09:07:30;12.23;;;9.43;;
11539;SDS011;5826;54.756;9.192;2023-02-28T09:09:56;11.83;;;10.13;;
11539;SDS011;5826;54.756;9.192;2023-02-28T09:12:26;9.77;;;7.50;;
11539;SDS011;5826;54.756;9.192;2023-02-28T09:14:52;11.77;;;8.93;;
11539;SDS011;5826;54.756;9.192;2023-02-28T09:17:19;12.93;;;11.33;;
11539;SDS011;5826;54.756;9.192;2023-02-28T09:19:45;12.03;;;9.90;;
11539;SDS011;5826;54.756;9.192;2023-02-28T09:22:13;9.77;;;7.70;;
11539;SDS011;5826;54.756;9.192;2023-02-28T09:24:38;9.70;;;7.57;;
11539;SDS011;5826;54.756;9.192;2023-02-28T09:27:04;8.43;;;7.27;;
11539;SDS011;5826;54.756;9.192;2023-02-28T09:29:30;12.17;;;9.33;;
11539;SDS011;5826;54.756;9.192;2023-02-28T09:31:57;7.13;;;6.17;;
11539;SDS011;5826;54.756;9.192;2023-02-28T09:34:24;12.70;;;9.00;;
11539;SDS011;5826;54.756;9.192;2023-02-28T09:36:50;13.70;;;9.20;;
11539;SDS011;5826;54.756;9.192;2023-02-28T09:39:19;10.90;;;7.77;;
11539;SDS011;5826;54.756;9.192;2023-02-28T09:41:47;12.33;;;9.17;;
11539;SDS011;5826;54.756;9.192;2023-02-28T09:46:55;11.83;;;8.40;;
11539;SDS011;5826;54.756;9.192;2023-02-28T09:49:30;10.13;;;7.20;;
11539;SDS011;5826;54.756;9.192;2023-02-28T09:52:03;8.10;;;6.07;;
11539;SDS011;5826;54.756;9.192;2023-02-28T09:54:34;10.23;;;7.03;;
11539;SDS011;5826;54.756;9.192;2023-02-28T09:59:29;7.40;;;5.73;;
11539;SDS011;5826;54.756;9.192;2023-02-28T10:02:13;15.10;;;9.20;;
11539;SDS011;5826;54.756;9.192;2023-02-28T10:04:54;8.90;;;7.13;;
11539;SDS011;5826;54.756;9.192;2023-02-28T10:10:21;12.07;;;8.97;;
11539;SDS011;5826;54.756;9.192;2023-02-28T10:12:52;10.93;;;8.23;;
11539;SDS011;5826;54.756;9.192;2023-02-28T10:15:21;9.27;;;7.60;;
11539;SDS011;5826;54.756;9.192;2023-02-28T10:17:49;8.63;;;7.40;;
11539;SDS011;5826;54.756;9.192;2023-02-28T10:20:21;10.40;;;7.47;;
11539;SDS011;5826;54.756;9.192;2023-02-28T10:25:35;8.63;;;6.63;;
11539;SDS011;5826;54.756;9.192;2023-02-28T10:28:13;8.90;;;6.53;;
11539;SDS011;5826;54.756;9.192;2023-02-28T10:30:47;10.93;;;6.90;;
11539;SDS011;5826;54.756;9.192;2023-02-28T10:35:57;8.47;;;6.20;;
11539;SDS011;5826;54.756;9.192;2023-02-28T10:38:24;10.80;;;8.63;;
11539;SDS011;5826;54.756;9.192;2023-02-28T10:41:04;12.70;;;8.93;;
11539;SDS011;5826;54.756;9.192;2023-02-28T10:43:35;10.47;;;8.60;;
11539;SDS011;5826;54.756;9.192;2023-02-28T10:46:04;11.87;;;7.87;;
11539;SDS011;5826;54.756;9.192;2023-02-28T10:48:36;8.73;;;7.00;;
11539;SDS011;5826;54.756;9.192;2023-02-28T10:51:14;7.97;;;7.03;;
11539;SDS011;5826;54.756;9.192;2023-02-28T11:01:24;7.77;;;6.07;;
11539;SDS011;5826;54.756;9.192;2023-02-28T11:04:00;7.90;;;5.73;;
11539;SDS011;5826;54.756;9.192;2023-02-28T11:06:28;8.93;;;6.90;;
11539;SDS011;5826;54.756;9.192;2023-02-28T11:08:57;7.77;;;6.47;;
11539;SDS011;5826;54.756;9.192;2023-02-28T11:11:29;6.70;;;4.70;;
11539;SDS011;5826;54.756;9.192;2023-02-28T11:14:06;7.23;;;6.17;;
11539;SDS011;5826;54.756;9.192;2023-02-28T11:16:42;9.57;;;6.87;;
11539;SDS011;5826;54.756;9.192;2023-02-28T11:19:14;6.73;;;5.03;;
11539;SDS011;5826;54.756;9.192;2023-02-28T11:22:08;9.10;;;6.83;;
11539;SDS011;5826;54.756;9.192;2023-02-28T11:24:35;10.17;;;7.77;;
11539;SDS011;5826;54.756;9.192;2023-02-28T11:27:05;7.90;;;6.57;;
11539;SDS011;5826;54.756;9.192;2023-02-28T11:29:32;12.97;;;9.17;;
11539;SDS011;5826;54.756;9.192;2023-02-28T11:37:29;13.80;;;9.30;;
11539;SDS011;5826;54.756;9.192;2023-02-28T11:39:56;12.30;;;7.87;;
11539;SDS011;5826;54.756;9.192;2023-02-28T11:42:29;8.73;;;7.33;;
11539;SDS011;5826;54.756;9.192;2023-02-28T11:45:35;10.13;;;8.53;;
11539;SDS011;5826;54.756;9.192;2023-02-28T11:48:22;12.93;;;8.37;;
11539;SDS011;5826;54.756;9.192;2023-02-28T11:53:42;11.80;;;9.53;;
11539;SDS011;5826;54.756;9.192;2023-02-28T11:56:33;10.30;;;7.77;;
11539;SDS011;5826;54.756;9.192;2023-02-28T12:04:52;11.40;;;8.47;;
11539;SDS011;5826;54.756;9.192;2023-02-28T12:10:26;11.10;;;7.80;;
11539;SDS011;5826;54.756;9.192;2023-02-28T12:18:21;8.67;;;7.13;;
11539;SDS011;5826;54.756;9.192;2023-02-28T12:23:54;9.07;;;7.77;;
11539;SDS011;5826;54.756;9.192;2023-02-28T12:31:45;9.67;;;7.53;;
11539;SDS011;5826;54.756;9.192;2023-02-28T12:34:18;11.20;;;8.10;;
11539;SDS011;5826;54.756;9.192;2023-02-28T12:36:46;10.50;;;7.97;;
11539;SDS011;5826;54.756;9.192;2023-02-28T12:39:16;9.83;;;7.47;;
11539;SDS011;5826;54.756;9.192;2023-02-28T12:41:47;9.40;;;7.43;;
11539;SDS011;5826;54.756;9.192;2023-02-28T12:44:29;9.77;;;8.17;;
11539;SDS011;5826;54.756;9.192;2023-02-28T12:47:03;10.45;;;6.82;;
11539;SDS011;5826;54.756;9.192;2023-02-28T12:49:34;9.47;;;7.73;;
11539;SDS011;5826;54.756;9.192;2023-02-28T12:52:04;9.52;;;7.68;;
11539;SDS011;5826;54.756;9.192;2023-02-28T12:54:35;11.02;;;8.27;;
11539;SDS011;5826;54.756;9.192;2023-02-28T12:57:13;7.55;;;6.78;;
11539;SDS011;5826;54.756;9.192;2023-02-28T12:59:46;9.52;;;7.65;;
11539;SDS011;5826;54.756;9.192;2023-02-28T13:02:32;8.65;;;6.88;;
11539;SDS011;5826;54.756;9.192;2023-02-28T13:08:32;7.07;;;6.35;;
11539;SDS011;5826;54.756;9.192;2023-02-28T13:11:23;8.20;;;6.07;;
11539;SDS011;5826;54.756;9.192;2023-02-28T13:13:56;8.98;;;7.03;;
11539;SDS011;5826;54.756;9.192;2023-02-28T13:16:27;8.23;;;6.22;;
11539;SDS011;5826;54.756;9.192;2023-02-28T13:18:52;9.13;;;7.00;;
11539;SDS011;5826;54.756;9.192;2023-02-28T13:21:40;6.72;;;5.40;;
11539;SDS011;5826;54.756;9.192;2023-02-28T13:24:08;8.75;;;6.72;;
11539;SDS011;5826;54.756;9.192;2023-02-28T13:29:04;5.68;;;5.07;;
11539;SDS011;5826;54.756;9.192;2023-02-28T13:34:39;7.95;;;6.18;;
11539;SDS011;5826;54.756;9.192;2023-02-28T13:39:53;7.22;;;5.80;;
11539;SDS011;5826;54.756;9.192;2023-02-28T13:42:32;7.03;;;6.07;;
11539;SDS011;5826;54.756;9.192;2023-02-28T13:47:40;9.20;;;6.00;;
11539;SDS011;5826;54.756;9.192;2023-02-28T14:03:58;7.65;;;6.13;;
11539;SDS011;5826;54.756;9.192;2023-02-28T14:06:48;5.13;;;4.55;;
11539;SDS011;5826;54.756;9.192;2023-02-28T14:09:29;5.88;;;5.30;;
11539;SDS011;5826;54.756;9.192;2023-02-28T14:17:58;6.18;;;5.20;;
11539;SDS011;5826;54.756;9.192;2023-02-28T14:20:27;7.18;;;6.03;;
11539;SDS011;5826;54.756;9.192;2023-02-28T14:25:47;6.50;;;5.80;;
11539;SDS011;5826;54.756;9.192;2023-02-28T14:28:19;5.30;;;4.40;;
11539;SDS011;5826;54.756;9.192;2023-02-28T14:31:15;5.15;;;4.65;;
11539;SDS011;5826;54.756;9.192;2023-02-28T14:36:38;5.07;;;4.20;;
11539;SDS011;5826;54.756;9.192;2023-02-28T14:39:07;5.97;;;4.55;;
11539;SDS011;5826;54.756;9.192;2023-02-28T14:41:42;5.13;;;4.63;;
11539;SDS011;5826;54.756;9.192;2023-02-28T14:44:17;4.30;;;3.83;;
11539;SDS011;5826;54.756;9.192;2023-02-28T14:46:52;4.65;;;3.35;;
11539;SDS011;5826;54.756;9.192;2023-02-28T14:49:31;4.00;;;3.30;;
11539;SDS011;5826;54.756;9.192;2023-02-28T14:52:05;4.68;;;3.60;;
11539;SDS011;5826;54.756;9.192;2023-02-28T14:54:34;3.30;;;3.00;;
11539;SDS011;5826;54.756;9.192;2023-02-28T14:57:01;4.65;;;4.03;;
11539;SDS011;5826;54.756;9.192;2023-02-28T14:59:31;4.35;;;3.95;;
11539;SDS011;5826;54.756;9.192;2023-02-28T15:02:14;5.10;;;3.83;;
11539;SDS011;5826;54.756;9.192;2023-02-28T15:04:41;5.13;;;4.13;;
11539;SDS011;5826;54.756;9.192;2023-02-28T15:07:13;4.22;;;3.55;;
11539;SDS011;5826;54.756;9.192;2023-02-28T15:09:40;7.03;;;5.07;;
11539;SDS011;5826;54.756;9.192;2023-02-28T15:12:06;5.15;;;4.65;;
11539;SDS011;5826;54.756;9.192;2023-02-28T15:14:32;4.60;;;4.20;;
11539;SDS011;5826;54.756;9.192;2023-02-28T15:17:05;5.22;;;4.72;;
11539;SDS011;5826;54.756;9.192;2023-02-28T15:19:34;5.20;;;4.70;;
11539;SDS011;5826;54.756;9.192;2023-02-28T15:22:06;4.47;;;3.67;;
11539;SDS011;5826;54.756;9.192;2023-02-28T15:24:43;5.82;;;4.85;;
11539;SDS011;5826;54.756;9.192;2023-02-28T15:27:35;6.00;;;5.40;;
11539;SDS011;5826;54.756;9.192;2023-02-28T15:30:07;5.28;;;4.78;;
11539;SDS011;5826;54.756;9.192;2023-02-28T15:32:39;5.88;;;5.18;;
11539;SDS011;5826;54.756;9.192;2023-02-28T15:37:56;4.63;;;3.90;;
11539;SDS011;5826;54.756;9.192;2023-02-28T15:40:40;6.97;;;6.05;;
11539;SDS011;5826;54.756;9.192;2023-02-28T15:43:13;5.65;;;5.15;;
11539;SDS011;5826;54.756;9.192;2023-02-28T15:48:28;4.88;;;3.35;;
11539;SDS011;5826;54.756;9.192;2023-02-28T15:50:57;6.32;;;5.32;;
11539;SDS011;5826;54.756;9.192;2023-02-28T15:53:50;6.38;;;5.78;;
11539;SDS011;5826;54.756;9.192;2023-02-28T15:58:55;3.20;;;2.90;;
11539;SDS011;5826;54.756;9.192;2023-02-28T16:01:26;5.15;;;4.18;;
11539;SDS011;5826;54.756;9.192;2023-02-28T16:03:55;5.63;;;5.13;;
11539;SDS011;5826;54.756;9.192;2023-02-28T16:08:48;5.18;;;4.68;;
11539;SDS011;5826;54.756;9.192;2023-02-28T16:11:16;5.43;;;4.85;;
11539;SDS011;5826;54.756;9.192;2023-02-28T16:13:42;5.57;;;4.40;;
11539;SDS011;5826;54.756;9.192;2023-02-28T16:16:07;5.18;;;4.68;;
11539;SDS011;5826;54.756;9.192;2023-02-28T16:18:33;5.25;;;4.40;;
11539;SDS011;5826;54.756;9.192;2023-02-28T16:20:58;7.25;;;6.13;;
11539;SDS011;5826;54.756;9.192;2023-02-28T16:23:24;5.32;;;4.63;;
11539;SDS011;5826;54.756;9.192;2023-02-28T16:25:49;7.00;;;6.15;;
11539;SDS011;5826;54.756;9.192;2023-02-28T16:28:17;7.22;;;5.70;;
11539;SDS011;5826;54.756;9.192;2023-02-28T16:30:44;8.90;;;6.65;;
11539;SDS011;5826;54.756;9.192;2023-02-28T16:33:10;7.97;;;6.18;;
11539;SDS011;5826;54.756;9.192;2023-02-28T16:35:35;9.75;;;7.18;;
11539;SDS011;5826;54.756;9.192;2023-02-28T16:38:01;8.43;;;7.03;;
11539;SDS011;5826;54.756;9.192;2023-02-28T16:40:26;7.78;;;6.97;;
11539;SDS011;5826;54.756;9.192;2023-02-28T16:42:55;8.27;;;6.97;;
11539;SDS011;5826;54.756;9.192;2023-02-28T16:45:25;7.65;;;6.38;;
11539;SDS011;5826;54.756;9.192;2023-02-28T16:47:51;7.43;;;6.50;;
11539;SDS011;5826;54.756;9.192;2023-02-28T16:50:18;10.18;;;8.00;;
11539;SDS011;5826;54.756;9.192;2023-02-28T16:52:48;8.95;;;7.10;;
11539;SDS011;5826;54.756;9.192;2023-02-28T16:55:17;8.13;;;7.32;;
11539;SDS011;5826;54.756;9.192;2023-02-28T16:57:50;9.63;;;7.55;;
11539;SDS011;5826;54.756;9.192;2023-02-28T17:00:18;10.05;;;8.32;;
11539;SDS011;5826;54.756;9.192;2023-02-28T17:02:44;9.32;;;8.27;;
11539;SDS011;5826;54.756;9.192;2023-02-28T17:05:11;9.80;;;7.80;;
11539;SDS011;5826;54.756;9.192;2023-02-28T17:07:37;8.32;;;7.47;;
11539;SDS011;5826;54.756;9.192;2023-02-28T17:10:10;8.70;;;7.60;;
11539;SDS011;5826;54.756;9.192;2023-02-28T17:12:42;13.32;;;10.63;;
11539;SDS011;5826;54.756;9.192;2023-02-28T17:15:09;12.55;;;9.32;;
11539;SDS011;5826;54.756;9.192;2023-02-28T17:17:36;11.93;;;9.05;;
11539;SDS011;5826;54.756;9.192;2023-02-28T17:20:02;10.23;;;9.23;;
11539;SDS011;5826;54.756;9.192;2023-02-28T17:22:29;9.60;;;8.35;;